Time;durP1;ratioP1;P1;durP2;ratioP2;P2;SDS_P1;SDS_P2;PMS_P1;PMS_P2;Temp;Humidity;BMP_temperature;BMP_pressure;BME280_temperature;BME280_humidity;BME280_pressure;Samples;Min_cycle;Max_cycle;Signal;HPM_P1;HPM_P2
2022/02/14 00:00:18;;;;;;;16.07;11.30;;;4.90;74.80;;;;;;4997670;28;20210;-64
2022/02/14 00:02:45;;;;;;;22.43;12.43;;;4.90;74.80;;;;;;5000376;28;20590;-64
2022/02/14 00:05:13;;;;;;;17.63;10.73;;;4.90;74.80;;;;;;4997764;28;20210;-64
2022/02/14 00:07:40;;;;;;;17.67;11.27;;;4.90;74.80;;;;;;4994322;28;20205;-64
2022/02/14 00:10:08;;;;;;;17.17;11.23;;;4.90;74.90;;;;;;5003866;28;20209;-64
2022/02/14 00:12:39;;;;;;;16.83;10.93;;;4.90;74.80;;;;;;5001326;28;20520;-64
2022/02/14 00:15:08;;;;;;;15.67;11.53;;;5.00;74.90;;;;;;4998109;28;20224;-64
2022/02/14 00:17:35;;;;;;;15.17;10.80;;;5.00;75.10;;;;;;5000000;28;20207;-64
2022/02/14 00:20:04;;;;;;;18.60;11.77;;;5.00;75.30;;;;;;5002958;28;20217;-64
2022/02/14 00:22:31;;;;;;;18.17;11.37;;;5.00;75.40;;;;;;5003511;28;20225;-64
2022/02/14 00:24:59;;;;;;;13.97;10.63;;;4.90;75.40;;;;;;5004009;28;20282;-64
2022/02/14 00:27:26;;;;;;;15.93;10.47;;;5.00;75.70;;;;;;5000217;28;20625;-64
2022/02/14 00:29:53;;;;;;;16.30;11.40;;;5.00;75.80;;;;;;5000412;28;20203;-64
2022/02/14 00:32:20;;;;;;;16.13;11.57;;;5.00;75.80;;;;;;5005173;28;20215;-64
2022/02/14 00:34:50;;;;;;;17.83;11.00;;;5.00;75.80;;;;;;4999072;28;20506;-64
2022/02/14 00:37:17;;;;;;;15.77;11.53;;;5.00;76.00;;;;;;4993620;28;20578;-64
2022/02/14 00:39:45;;;;;;;16.83;11.00;;;5.10;76.10;;;;;;4997667;28;20232;-64
2022/02/14 00:42:12;;;;;;;18.27;11.87;;;5.00;76.00;;;;;;4999851;28;20731;-64
2022/02/14 00:44:41;;;;;;;15.93;11.47;;;5.10;76.00;;;;;;5009054;28;20237;-64
2022/02/14 00:47:08;;;;;;;17.27;11.90;;;5.00;75.90;;;;;;5001259;28;20203;-64
2022/02/14 00:49:35;;;;;;;17.47;11.53;;;5.00;76.10;;;;;;4999086;28;20217;-64
2022/02/14 00:52:03;;;;;;;14.77;10.43;;;5.00;76.30;;;;;;5001549;28;20203;-64
2022/02/14 00:54:30;;;;;;;14.20;11.10;;;4.90;76.50;;;;;;5003122;28;20600;-64
2022/02/14 00:56:58;;;;;;;17.37;11.83;;;4.90;76.70;;;;;;5008819;28;20647;-64
2022/02/14 00:59:26;;;;;;;17.23;11.53;;;4.80;76.70;;;;;;5004301;28;20241;-64
2022/02/14 01:01:53;;;;;;;14.90;11.23;;;4.80;76.70;;;;;;4998811;28;20296;-64
2022/02/14 01:04:20;;;;;;;17.83;11.23;;;4.70;76.80;;;;;;4998847;28;20218;-64
2022/02/14 01:06:49;;;;;;;16.27;11.07;;;4.70;76.80;;;;;;5003245;28;20206;-64
2022/02/14 01:09:16;;;;;;;15.47;11.40;;;4.70;76.60;;;;;;5008821;28;20205;-64
2022/02/14 01:11:43;;;;;;;16.30;10.77;;;4.60;76.70;;;;;;4999862;28;20204;-64
2022/02/14 01:14:14;;;;;;;16.87;12.47;;;4.60;76.90;;;;;;5000954;28;20293;-64
2022/02/14 01:16:42;;;;;;;17.00;12.43;;;4.60;77.20;;;;;;4994752;28;20208;-64
2022/02/14 01:19:09;;;;;;;18.30;12.23;;;4.50;77.30;;;;;;4995907;28;20213;-65
2022/02/14 01:21:36;;;;;;;17.93;12.47;;;4.50;77.60;;;;;;5001467;28;20241;-64
2022/02/14 01:24:03;;;;;;;18.40;12.80;;;4.50;78.00;;;;;;5001868;28;20209;-64
2022/02/14 01:26:31;;;;;;;19.33;12.43;;;4.40;78.10;;;;;;5000243;28;20252;-64
2022/02/14 01:28:58;;;;;;;16.80;12.20;;;4.40;78.30;;;;;;5000698;28;20620;-64
2022/02/14 01:31:25;;;;;;;14.80;11.57;;;4.40;78.40;;;;;;5003279;28;20204;-64
2022/02/14 01:33:53;;;;;;;19.83;12.33;;;4.40;78.40;;;;;;5004606;28;20212;-64
2022/02/14 01:36:20;;;;;;;17.30;11.73;;;4.40;78.30;;;;;;4998488;28;20244;-64
2022/02/14 01:38:47;;;;;;;16.77;11.33;;;4.40;78.30;;;;;;4998142;28;20203;-64
2022/02/14 01:41:14;;;;;;;17.57;12.37;;;4.40;78.40;;;;;;5000050;28;20212;-64
2022/02/14 01:43:43;;;;;;;15.23;11.73;;;4.30;78.30;;;;;;4994306;28;20245;-64
2022/02/14 01:46:11;;;;;;;22.20;14.00;;;4.30;78.50;;;;;;4992980;28;20233;-64
2022/02/14 01:48:38;;;;;;;21.37;13.97;;;4.30;78.50;;;;;;4999297;28;20753;-64
2022/02/14 01:51:06;;;;;;;19.57;13.67;;;4.20;78.60;;;;;;4998642;28;20211;-64
2022/02/14 01:53:33;;;;;;;17.23;12.40;;;4.20;79.00;;;;;;4999690;28;20211;-64
2022/02/14 01:56:01;;;;;;;17.37;12.57;;;4.20;79.20;;;;;;5005033;28;20202;-64
2022/02/14 01:58:28;;;;;;;17.97;12.20;;;4.10;79.20;;;;;;5007130;28;20214;-64
2022/02/14 02:00:56;;;;;;;18.37;12.27;;;4.10;79.20;;;;;;5004142;28;20212;-64
2022/02/14 02:03:25;;;;;;;16.47;11.47;;;4.10;79.40;;;;;;5007702;28;20331;-64
2022/02/14 02:05:54;;;;;;;18.93;12.00;;;4.00;79.60;;;;;;5008822;28;20649;-64
2022/02/14 02:08:21;;;;;;;19.77;12.07;;;4.00;79.70;;;;;;5007252;28;20211;-64
2022/02/14 02:10:48;;;;;;;17.53;12.37;;;3.90;79.60;;;;;;5005883;28;20232;-64
2022/02/14 02:13:17;;;;;;;16.57;11.80;;;3.90;79.60;;;;;;5000887;28;20230;-64
2022/02/14 02:15:44;;;;;;;17.67;12.33;;;3.90;79.80;;;;;;5006140;28;20212;-64
2022/02/14 02:18:11;;;;;;;16.67;11.43;;;3.90;79.80;;;;;;5003608;28;20540;-64
2022/02/14 02:20:38;;;;;;;14.87;10.53;;;3.90;79.90;;;;;;4996566;28;20212;-64
2022/02/14 02:23:05;;;;;;;14.87;10.53;;;3.80;79.90;;;;;;4997343;28;20241;-64
2022/02/14 02:25:32;;;;;;;16.17;10.93;;;3.80;79.60;;;;;;5003786;28;20209;-64
2022/02/14 02:27:59;;;;;;;20.87;13.77;;;3.80;79.60;;;;;;5001010;28;20213;-64
2022/02/14 02:30:26;;;;;;;20.73;13.33;;;3.80;79.70;;;;;;5000885;28;20223;-64
2022/02/14 02:32:53;;;;;;;20.87;13.43;;;3.80;80.10;;;;;;5005974;28;20228;-64
2022/02/14 02:35:20;;;;;;;17.73;12.20;;;3.80;80.40;;;;;;5003611;28;20216;-64
2022/02/14 02:37:47;;;;;;;20.43;13.73;;;3.80;80.80;;;;;;5005519;28;20214;-64
2022/02/14 02:40:14;;;;;;;19.53;13.07;;;3.90;81.00;;;;;;5002759;28;20220;-64
2022/02/14 02:42:41;;;;;;;20.50;12.77;;;3.90;81.10;;;;;;5005763;28;20229;-64
2022/02/14 02:45:09;;;;;;;23.17;13.17;;;3.90;81.30;;;;;;5003690;28;20221;-64
2022/02/14 02:47:36;;;;;;;18.27;12.17;;;4.00;81.40;;;;;;5005277;28;20504;-64
2022/02/14 02:50:04;;;;;;;17.00;13.53;;;4.00;81.50;;;;;;4997732;28;20201;-64
2022/02/14 02:52:31;;;;;;;18.13;12.17;;;4.10;81.60;;;;;;5001888;28;20208;-64
2022/02/14 02:54:58;;;;;;;18.90;12.63;;;4.10;81.60;;;;;;4999512;28;20211;-64
2022/02/14 02:57:26;;;;;;;18.00;12.77;;;4.10;81.50;;;;;;5011019;28;20402;-64
2022/02/14 02:59:53;;;;;;;18.80;13.37;;;4.20;81.50;;;;;;5002042;28;20216;-64
2022/02/14 03:02:21;;;;;;;18.27;13.20;;;4.20;81.50;;;;;;5006305;28;20586;-64
2022/02/14 03:04:49;;;;;;;19.70;12.97;;;4.20;81.50;;;;;;5002575;28;20213;-64
2022/02/14 03:07:16;;;;;;;16.70;11.90;;;4.30;81.60;;;;;;5004521;28;20205;-64
2022/02/14 03:09:43;;;;;;;17.17;12.17;;;4.30;81.80;;;;;;5003337;28;20258;-64
2022/02/14 03:12:11;;;;;;;18.37;12.57;;;4.30;81.90;;;;;;5011515;28;20219;-64
2022/02/14 03:14:39;;;;;;;18.20;11.23;;;4.30;81.90;;;;;;5001484;28;20195;-64
2022/02/14 03:17:11;;;;;;;16.03;12.27;;;4.40;81.90;;;;;;5000229;28;20227;-64
2022/02/14 03:19:38;;;;;;;16.40;11.50;;;4.40;81.90;;;;;;5012178;28;20212;-64
2022/02/14 03:22:05;;;;;;;15.80;11.77;;;4.40;81.80;;;;;;4997949;28;20217;-64
2022/02/14 03:24:32;;;;;;;15.27;11.83;;;4.40;81.70;;;;;;4995873;28;20193;-64
2022/02/14 03:26:59;;;;;;;19.03;12.90;;;4.40;81.60;;;;;;4998126;28;20212;-64
2022/02/14 03:29:26;;;;;;;19.40;12.43;;;4.40;81.60;;;;;;5000525;28;20260;-64
2022/02/14 03:31:54;;;;;;;19.67;12.67;;;4.40;81.60;;;;;;4997299;28;20198;-64
2022/02/14 03:34:21;;;;;;;18.77;13.37;;;4.40;81.50;;;;;;5006052;28;20212;-64
2022/02/14 03:36:49;;;;;;;18.23;12.77;;;4.40;81.50;;;;;;4999210;28;20723;-64
2022/02/14 03:39:16;;;;;;;23.50;13.77;;;4.40;81.50;;;;;;5001628;28;20217;-64
2022/02/14 03:41:43;;;;;;;17.30;12.60;;;4.50;81.70;;;;;;5002582;28;20226;-64
2022/02/14 03:44:10;;;;;;;19.73;13.57;;;4.40;81.70;;;;;;5002434;28;20236;-64
2022/02/14 03:46:37;;;;;;;19.60;13.13;;;4.50;81.70;;;;;;5003276;28;20268;-64
2022/02/14 03:49:05;;;;;;;18.17;12.80;;;4.50;81.60;;;;;;5000158;28;20626;-64
2022/02/14 03:51:33;;;;;;;20.83;13.60;;;4.50;81.40;;;;;;4999144;28;20206;-64
2022/02/14 03:54:00;;;;;;;29.03;15.30;;;4.50;81.20;;;;;;5004234;28;20213;-64
2022/02/14 03:56:27;;;;;;;18.50;12.97;;;4.50;81.20;;;;;;4996376;28;20207;-64
2022/02/14 03:58:54;;;;;;;20.40;12.80;;;4.60;81.20;;;;;;4994960;28;20536;-64
2022/02/14 04:01:21;;;;;;;21.27;13.63;;;4.60;81.20;;;;;;5000046;28;20209;-64
2022/02/14 04:03:48;;;;;;;22.70;14.27;;;4.60;81.20;;;;;;4996131;28;20224;-64
2022/02/14 04:06:15;;;;;;;18.80;13.93;;;4.60;81.20;;;;;;4997147;28;20206;-64
2022/02/14 04:08:42;;;;;;;20.20;13.83;;;4.60;81.20;;;;;;5007995;28;20257;-64
2022/02/14 04:11:09;;;;;;;18.50;13.07;;;4.70;81.50;;;;;;5010718;28;20225;-64
2022/02/14 04:13:37;;;;;;;21.23;14.30;;;4.60;81.60;;;;;;5003140;28;20210;-64
2022/02/14 04:16:04;;;;;;;19.40;14.80;;;4.60;82.00;;;;;;5001090;28;20209;-64
2022/02/14 04:18:31;;;;;;;19.53;14.17;;;4.70;82.30;;;;;;5003557;28;20210;-64
2022/02/14 04:20:58;;;;;;;19.10;13.97;;;4.70;82.60;;;;;;5006345;28;20201;-64
2022/02/14 04:23:27;;;;;;;21.43;14.43;;;4.60;83.60;;;;;;4999235;28;20553;-64
2022/02/14 04:25:54;;;;;;;19.20;13.80;;;4.60;83.00;;;;;;5001489;28;20211;-64
2022/02/14 04:28:21;;;;;;;23.90;13.43;;;4.60;83.20;;;;;;5001777;28;20280;-64
2022/02/14 04:30:48;;;;;;;18.90;13.60;;;4.60;83.50;;;;;;4995587;28;20519;-64
2022/02/14 04:33:15;;;;;;;20.77;13.50;;;4.60;83.60;;;;;;5000185;28;20205;-64
2022/02/14 04:35:42;;;;;;;15.50;12.47;;;4.50;83.50;;;;;;5012782;28;20248;-64
2022/02/14 04:38:09;;;;;;;16.63;11.97;;;4.50;83.60;;;;;;4997954;28;20270;-64
2022/02/14 04:40:39;;;;;;;18.03;12.53;;;4.40;83.80;;;;;;5004109;28;20220;-64
2022/02/14 04:43:06;;;;;;;22.77;13.60;;;4.40;84.00;;;;;;5002710;28;20240;-64
2022/02/14 04:45:34;;;;;;;19.80;13.00;;;4.40;83.90;;;;;;5004918;28;20689;-64
2022/02/14 04:48:02;;;;;;;21.80;14.20;;;4.40;84.10;;;;;;5002429;28;20212;-64
2022/02/14 04:50:29;;;;;;;21.83;14.67;;;4.50;84.40;;;;;;5009666;28;20268;-64
2022/02/14 04:52:57;;;;;;;23.40;14.50;;;4.50;84.70;;;;;;5003227;28;20599;-64
2022/02/14 04:55:24;;;;;;;20.00;13.60;;;4.50;84.50;;;;;;5003769;28;20219;-64
2022/02/14 04:57:53;;;;;;;22.23;13.83;;;4.50;84.40;;;;;;5001698;28;20208;-64
2022/02/14 05:00:21;;;;;;;22.27;14.30;;;4.60;84.60;;;;;;4999334;28;20212;-64
2022/02/14 05:02:48;;;;;;;21.73;14.60;;;4.60;84.60;;;;;;5003231;28;20218;-64
2022/02/14 05:05:20;;;;;;;20.60;13.13;;;4.60;84.60;;;;;;5000235;28;20205;-64
2022/02/14 05:07:50;;;;;;;25.47;15.23;;;4.70;84.70;;;;;;5009983;28;20626;-64
2022/02/14 05:10:19;;;;;;;18.20;13.63;;;4.70;84.80;;;;;;5003406;28;20293;-64
2022/02/14 05:12:46;;;;;;;24.37;13.03;;;4.70;84.60;;;;;;5002320;28;21025;-64
2022/02/14 05:15:13;;;;;;;22.37;14.00;;;4.80;84.40;;;;;;4998356;28;20215;-64
2022/02/14 05:17:40;;;;;;;19.57;13.60;;;4.80;84.90;;;;;;5004486;28;20270;-64
2022/02/14 05:20:07;;;;;;;16.57;13.03;;;4.80;84.20;;;;;;5005883;28;20554;-64
2022/02/14 05:22:34;;;;;;;24.13;13.23;;;4.70;84.20;;;;;;5006776;28;20223;-64
2022/02/14 05:25:02;;;;;;;25.63;14.10;;;4.70;84.30;;;;;;5008044;28;20213;-64
2022/02/14 05:27:30;;;;;;;19.10;13.20;;;4.70;84.40;;;;;;5005247;28;20309;-64
2022/02/14 05:29:57;;;;;;;20.00;14.53;;;4.70;84.60;;;;;;5008700;28;20563;-64
2022/02/14 05:32:24;;;;;;;18.57;13.53;;;4.70;84.70;;;;;;5007261;28;20214;-64
2022/02/14 05:34:51;;;;;;;25.40;13.97;;;4.70;84.70;;;;;;5003002;28;20563;-64
2022/02/14 05:37:18;;;;;;;23.63;14.87;;;4.70;84.80;;;;;;4999196;28;20247;-64
2022/02/14 05:39:47;;;;;;;19.17;13.67;;;4.70;84.80;;;;;;4998676;28;20206;-64
2022/02/14 05:42:16;;;;;;;19.90;13.63;;;4.70;84.70;;;;;;4999390;28;20205;-64
2022/02/14 05:44:43;;;;;;;20.63;13.93;;;4.80;84.70;;;;;;5000242;28;20241;-64
2022/02/14 05:47:10;;;;;;;17.90;13.83;;;4.80;84.80;;;;;;5007305;28;20205;-64
2022/02/14 05:49:38;;;;;;;21.37;14.23;;;4.80;84.90;;;;;;5004160;28;20202;-64
2022/02/14 05:52:05;;;;;;;22.20;14.10;;;4.80;85.00;;;;;;5007081;28;20209;-64
2022/02/14 05:54:33;;;;;;;19.57;14.50;;;4.90;85.30;;;;;;5010705;28;20225;-64
2022/02/14 05:57:00;;;;;;;21.80;14.50;;;4.80;85.30;;;;;;5005656;28;20200;-64
2022/02/14 05:59:27;;;;;;;20.57;13.90;;;4.80;85.40;;;;;;5006440;28;20272;-64
2022/02/14 06:01:54;;;;;;;19.77;14.20;;;4.80;85.50;;;;;;5009952;28;20221;-64
2022/02/14 06:04:21;;;;;;;20.80;14.10;;;4.80;85.50;;;;;;5004862;28;20230;-64
2022/02/14 06:06:49;;;;;;;20.37;14.67;;;4.80;85.50;;;;;;5000604;28;20206;-64
2022/02/14 06:09:16;;;;;;;19.20;13.80;;;4.80;85.40;;;;;;5012344;28;20291;-64
2022/02/14 06:11:43;;;;;;;22.13;13.97;;;4.80;85.40;;;;;;5002077;28;20218;-64
2022/02/14 06:14:10;;;;;;;22.07;14.80;;;4.80;85.40;;;;;;5000992;28;20203;-65
2022/02/14 06:16:37;;;;;;;19.70;14.27;;;4.90;85.40;;;;;;4997249;28;20211;-64
2022/02/14 06:19:05;;;;;;;17.77;13.17;;;4.90;85.30;;;;;;5007386;28;20210;-64
2022/02/14 06:21:32;;;;;;;17.93;13.70;;;4.90;85.20;;;;;;5009484;28;20223;-64
2022/02/14 06:23:59;;;;;;;19.73;14.43;;;5.00;85.20;;;;;;5002650;28;20228;-64
2022/02/14 06:26:27;;;;;;;17.93;13.00;;;5.00;85.10;;;;;;5004225;28;20217;-64
2022/02/14 06:28:54;;;;;;;18.47;13.90;;;5.00;84.90;;;;;;5004715;28;20264;-64
2022/02/14 06:31:22;;;;;;;18.37;13.37;;;5.10;84.70;;;;;;5008222;28;20677;-64
2022/02/14 06:33:49;;;;;;;22.87;14.37;;;5.10;84.70;;;;;;5007341;28;20603;-64
2022/02/14 06:36:17;;;;;;;18.93;13.90;;;5.10;84.60;;;;;;5002468;28;20254;-64
2022/02/14 06:38:44;;;;;;;23.50;14.70;;;5.10;84.70;;;;;;5001498;28;20593;-64
2022/02/14 06:41:12;;;;;;;17.87;12.47;;;5.10;85.10;;;;;;5010240;28;20208;-64
2022/02/14 06:43:39;;;;;;;20.50;13.53;;;5.00;85.40;;;;;;5003580;28;20218;-64
2022/02/14 06:46:06;;;;;;;19.90;13.93;;;5.10;85.60;;;;;;5013969;28;20513;-64
2022/02/14 06:48:35;;;;;;;22.60;13.60;;;5.10;85.70;;;;;;5009414;28;20629;-64
2022/02/14 06:51:02;;;;;;;18.80;13.17;;;5.10;85.80;;;;;;5003809;28;20208;-64
2022/02/14 06:53:30;;;;;;;22.47;13.93;;;5.10;86.00;;;;;;5002995;28;20215;-64
2022/02/14 06:55:57;;;;;;;17.90;14.03;;;5.10;86.30;;;;;;5008808;28;20632;-64
2022/02/14 06:58:24;;;;;;;21.37;13.90;;;5.10;86.40;;;;;;5007987;28;20514;-64
2022/02/14 07:00:52;;;;;;;21.03;12.57;;;5.10;86.60;;;;;;5002434;28;20213;-64
2022/02/14 07:03:19;;;;;;;20.27;13.60;;;5.10;86.60;;;;;;4991412;28;20228;-64
2022/02/14 07:05:46;;;;;;;22.63;14.17;;;5.20;86.50;;;;;;5001271;28;20205;-64
2022/02/14 07:08:13;;;;;;;17.87;13.30;;;5.20;86.40;;;;;;5004325;28;20218;-64
2022/02/14 07:10:40;;;;;;;16.47;13.13;;;5.20;86.50;;;;;;5003087;28;20198;-64
2022/02/14 07:13:08;;;;;;;17.43;13.30;;;5.20;86.50;;;;;;4999226;28;20204;-64
2022/02/14 07:15:35;;;;;;;21.80;14.10;;;5.20;86.60;;;;;;5003146;28;20218;-64
2022/02/14 07:18:03;;;;;;;20.20;14.20;;;5.30;86.50;;;;;;5000768;28;20203;-64
2022/02/14 07:20:31;;;;;;;19.40;13.80;;;5.30;86.30;;;;;;4994633;28;20208;-64
2022/02/14 07:22:58;;;;;;;20.40;13.70;;;5.30;86.50;;;;;;5002165;28;20673;-64
2022/02/14 07:25:25;;;;;;;18.60;13.83;;;5.30;86.50;;;;;;4999952;28;20519;-64
2022/02/14 07:27:52;;;;;;;20.63;14.63;;;5.20;86.40;;;;;;5004519;28;20215;-64
2022/02/14 07:30:20;;;;;;;24.73;15.00;;;5.20;86.50;;;;;;5006425;28;20207;-66
2022/02/14 07:32:47;;;;;;;23.93;14.83;;;5.20;86.60;;;;;;5004550;28;20697;-66
2022/02/14 07:35:15;;;;;;;22.00;14.90;;;5.20;86.90;;;;;;5006867;28;20199;-66
2022/02/14 07:37:44;;;;;;;22.00;14.23;;;5.20;87.40;;;;;;5002402;28;20534;-66
2022/02/14 07:40:13;;;;;;;21.77;15.37;;;5.10;87.50;;;;;;5006068;28;20213;-66
2022/02/14 07:42:40;;;;;;;23.17;14.97;;;5.20;88.00;;;;;;5006579;28;20208;-66
2022/02/14 07:45:09;;;;;;;24.80;16.83;;;5.10;88.30;;;;;;5005059;28;20678;-68
2022/02/14 07:47:36;;;;;;;21.70;15.30;;;5.20;88.30;;;;;;5002417;28;20201;-68
2022/02/14 07:50:06;;;;;;;22.97;16.67;;;5.20;88.50;;;;;;5009668;28;20235;-68
2022/02/14 07:52:37;;;;;;;29.40;17.80;;;5.20;88.70;;;;;;5001909;28;20199;-67
2022/02/14 07:55:05;;;;;;;19.87;15.43;;;5.20;89.20;;;;;;4998902;28;20210;-67
2022/02/14 07:57:32;;;;;;;24.47;16.60;;;5.20;88.70;;;;;;5010696;28;20206;-67
2022/02/14 08:00:01;;;;;;;23.47;17.17;;;5.20;88.60;;;;;;5001653;28;20662;-67
2022/02/14 08:02:38;;;;;;;29.33;19.03;;;5.20;88.70;;;;;;5008365;28;20262;-67
2022/02/14 08:05:05;;;;;;;24.03;17.33;;;5.20;88.80;;;;;;5003494;28;20225;-67
2022/02/14 08:07:33;;;;;;;22.13;17.07;;;5.10;89.50;;;;;;5004875;28;20235;-67
2022/02/14 08:10:20;;;;;;;23.63;16.47;;;5.20;89.50;;;;;;5012155;28;20609;-67
2022/02/14 08:12:48;;;;;;;24.13;17.50;;;5.20;89.60;;;;;;5001308;28;20211;-67
2022/02/14 08:15:15;;;;;;;25.83;17.57;;;5.20;89.80;;;;;;5002940;28;20583;-67
2022/02/14 08:17:42;;;;;;;22.97;16.43;;;5.20;89.90;;;;;;5004660;28;20218;-67
2022/02/14 08:20:10;;;;;;;24.43;17.80;;;5.30;90.00;;;;;;4998138;28;20292;-67
2022/02/14 08:22:37;;;;;;;26.50;17.63;;;5.30;90.20;;;;;;5003503;28;20242;-67
2022/02/14 08:25:05;;;;;;;28.83;18.53;;;5.40;90.40;;;;;;5001495;28;20218;-65
2022/02/14 08:27:32;;;;;;;25.23;17.97;;;5.50;90.40;;;;;;4994443;28;20305;-65
2022/02/14 08:29:59;;;;;;;29.73;17.17;;;5.60;90.40;;;;;;5000211;28;20218;-65
2022/02/14 08:32:26;;;;;;;22.23;17.27;;;5.60;90.30;;;;;;5004424;28;20221;-65
2022/02/14 08:34:54;;;;;;;22.90;17.23;;;5.70;90.30;;;;;;5001553;28;20204;-65
2022/02/14 08:37:21;;;;;;;25.63;15.30;;;5.70;90.10;;;;;;5003198;28;20246;-65
2022/02/14 08:39:48;;;;;;;21.43;16.37;;;5.80;89.80;;;;;;5007084;28;20248;-65
2022/02/14 08:42:16;;;;;;;26.77;16.33;;;5.90;89.10;;;;;;5009528;28;20203;-65
2022/02/14 08:44:43;;;;;;;21.30;16.33;;;6.00;89.10;;;;;;5001908;28;20249;-65
2022/02/14 08:47:11;;;;;;;23.87;16.33;;;6.10;88.90;;;;;;5011629;28;20594;-65
2022/02/14 08:49:38;;;;;;;21.50;15.07;;;6.10;88.00;;;;;;5004860;28;20592;-65
2022/02/14 08:52:05;;;;;;;21.97;16.00;;;6.20;87.50;;;;;;5003491;28;20199;-65
2022/02/14 08:54:32;;;;;;;19.97;15.03;;;6.30;86.80;;;;;;5000883;28;20535;-65
2022/02/14 08:56:59;;;;;;;20.00;14.43;;;6.40;86.40;;;;;;5003320;28;20229;-65
2022/02/14 08:59:26;;;;;;;21.13;15.07;;;6.50;85.80;;;;;;4996778;28;20210;-65
2022/02/14 09:01:55;;;;;;;19.20;13.83;;;6.50;85.10;;;;;;5012039;28;20203;-65
2022/02/14 09:04:23;;;;;;;19.90;13.60;;;6.60;84.10;;;;;;4999160;28;20253;-68
2022/02/14 09:06:50;;;;;;;18.77;13.57;;;6.70;83.30;;;;;;5000306;28;20377;-68
2022/02/14 09:09:30;;;;;;;17.90;14.10;;;6.70;81.90;;;;;;5003733;28;20262;-66
2022/02/14 09:12:02;;;;;;;20.87;15.07;;;6.80;81.60;;;;;;5003416;28;20208;-68
2022/02/14 09:14:30;;;;;;;21.80;15.10;;;6.80;81.60;;;;;;5002021;28;20234;-68
2022/02/14 09:16:57;;;;;;;18.97;14.60;;;6.80;81.80;;;;;;5007430;28;20243;-68
2022/02/14 09:19:26;;;;;;;18.73;14.63;;;6.90;82.10;;;;;;5006496;28;20215;-66
2022/02/14 09:21:54;;;;;;;21.00;15.83;;;6.90;82.20;;;;;;5003314;28;20215;-68
2022/02/14 09:24:21;;;;;;;19.90;13.97;;;6.90;82.40;;;;;;5007775;28;20226;-66
2022/02/14 09:26:48;;;;;;;17.07;12.57;;;7.00;82.60;;;;;;5006343;28;20203;-68
2022/02/14 09:29:15;;;;;;;17.43;13.23;;;7.00;81.90;;;;;;4999408;28;20221;-68
2022/02/14 09:31:43;;;;;;;18.90;14.07;;;7.00;81.40;;;;;;5001234;28;20197;-68
2022/02/14 09:34:11;;;;;;;18.27;13.83;;;7.10;81.20;;;;;;5003100;28;20559;-66
2022/02/14 09:36:38;;;;;;;17.57;14.40;;;7.10;80.80;;;;;;5002339;28;20277;-68
2022/02/14 09:39:10;;;;;;;19.57;13.13;;;7.10;80.80;;;;;;4998678;28;20218;-68
2022/02/14 09:41:38;;;;;;;16.93;13.53;;;7.10;80.80;;;;;;5001417;28;20212;-66
2022/02/14 09:44:06;;;;;;;20.80;14.63;;;7.10;80.80;;;;;;5006435;28;20218;-68
2022/02/14 09:46:39;;;;;;;20.87;14.43;;;7.10;81.30;;;;;;5002933;28;20279;-67
2022/02/14 09:49:07;;;;;;;21.40;14.53;;;7.20;81.70;;;;;;5005647;28;20636;-66
2022/02/14 09:51:36;;;;;;;17.43;13.63;;;7.20;81.90;;;;;;5002035;28;20204;-68
2022/02/14 09:54:05;;;;;;;19.37;14.17;;;7.20;82.00;;;;;;5002754;28;20238;-68
2022/02/14 09:56:35;;;;;;;19.77;14.40;;;7.30;81.40;;;;;;5003759;28;20219;-66
2022/02/14 09:59:05;;;;;;;23.53;14.63;;;7.30;80.90;;;;;;4999179;28;20231;-68
2022/02/14 10:01:32;;;;;;;21.73;14.27;;;7.30;80.90;;;;;;5004605;28;20211;-68
2022/02/14 10:04:00;;;;;;;19.57;14.50;;;7.40;81.30;;;;;;5004263;28;20323;-68
2022/02/14 10:06:39;;;;;;;20.93;14.13;;;7.40;81.20;;;;;;4997641;28;20207;-68
2022/02/14 10:09:11;;;;;;;18.53;13.40;;;7.50;81.20;;;;;;5000531;28;20211;-68
2022/02/14 10:11:55;;;;;;;20.10;13.87;;;7.60;81.30;;;;;;5003904;28;20196;-66
2022/02/14 10:14:23;;;;;;;23.47;12.80;;;7.70;80.30;;;;;;5010057;28;20214;-67
2022/02/14 10:17:02;;;;;;;19.23;13.27;;;7.80;79.30;;;;;;5003580;28;20552;-69
2022/02/14 10:19:31;;;;;;;19.97;12.43;;;7.80;79.60;;;;;;5008250;28;20210;-66
2022/02/14 10:21:59;;;;;;;18.07;13.17;;;7.90;79.10;;;;;;5015130;28;20211;-66
2022/02/14 10:24:26;;;;;;;17.73;11.43;;;8.00;78.10;;;;;;5005855;28;20668;-68
2022/02/14 10:26:55;;;;;;;13.17;9.57;;;8.00;78.00;;;;;;5006148;28;20234;-66
2022/02/14 10:29:27;;;;;;;18.93;11.27;;;8.10;76.90;;;;;;5007973;28;20204;-68
2022/02/14 10:32:00;;;;;;;18.00;12.10;;;8.10;77.10;;;;;;5003442;28;20219;-69
2022/02/14 10:34:41;;;;;;;15.67;11.70;;;8.20;76.40;;;;;;5001937;28;20206;-66
2022/02/14 10:37:13;;;;;;;20.17;12.67;;;8.10;76.60;;;;;;4999449;28;20236;-69
2022/02/14 10:39:41;;;;;;;20.70;12.53;;;8.10;75.40;;;;;;5001367;28;20325;-66
2022/02/14 10:42:12;;;;;;;16.77;13.03;;;8.00;75.80;;;;;;5013207;28;20274;-65
2022/02/14 10:47:35;;;;;;;18.43;13.87;;;8.00;76.90;;;;;;5009025;28;20200;-66
2022/02/14 10:50:11;;;;;;;17.40;13.00;;;8.00;77.10;;;;;;5007323;28;20240;-67
2022/02/14 10:52:44;;;;;;;17.83;13.43;;;8.00;76.40;;;;;;5013739;28;20283;-66
2022/02/14 10:55:18;;;;;;;19.67;13.60;;;8.00;76.60;;;;;;4997828;28;20277;-65
2022/02/14 10:57:48;;;;;;;19.50;14.27;;;8.10;76.60;;;;;;5006032;28;20216;-68
2022/02/14 11:00:18;;;;;;;20.40;15.07;;;8.10;77.10;;;;;;5005511;28;20203;-70
2022/02/14 11:02:47;;;;;;;25.70;15.30;;;8.10;77.10;;;;;;5007958;28;20552;-69
2022/02/14 11:05:16;;;;;;;19.97;14.30;;;8.20;77.40;;;;;;4989172;28;20324;-68
2022/02/14 11:07:45;;;;;;;18.87;12.80;;;8.30;77.60;;;;;;5007358;28;20215;-65
2022/02/14 11:10:17;;;;;;;20.70;13.50;;;8.30;77.10;;;;;;5008144;28;20207;-69
2022/02/14 11:12:52;;;;;;;20.60;13.70;;;8.40;77.20;;;;;;5000579;28;20216;-67
2022/02/14 11:15:24;;;;;;;18.60;13.33;;;8.40;75.70;;;;;;5018030;28;20206;-66
2022/02/14 11:18:20;;;;;;;17.70;13.23;;;8.50;75.00;;;;;;5011547;28;20204;-66
2022/02/14 11:20:50;;;;;;;20.43;13.67;;;8.60;74.20;;;;;;5015655;28;20263;-66
2022/02/14 11:23:19;;;;;;;18.97;14.47;;;8.60;74.60;;;;;;5013844;28;20228;-66
2022/02/14 11:26:08;;;;;;;19.53;14.00;;;8.60;75.10;;;;;;5014290;28;20242;-68
2022/02/14 11:28:44;;;;;;;16.17;12.43;;;8.70;75.40;;;;;;5010822;28;20218;-66
2022/02/14 11:31:19;;;;;;;22.50;14.40;;;8.70;74.40;;;;;;5011391;28;20317;-68
2022/02/14 11:33:50;;;;;;;18.33;13.73;;;8.80;74.10;;;;;;5007283;28;20216;-68
2022/02/14 11:36:18;;;;;;;19.53;12.47;;;8.90;73.90;;;;;;5012319;28;20235;-66
2022/02/14 11:38:45;;;;;;;14.90;10.90;;;8.90;73.60;;;;;;5011804;28;20224;-66
2022/02/14 11:41:39;;;;;;;16.63;10.60;;;9.00;71.60;;;;;;5004153;28;20589;-68
2022/02/14 11:44:20;;;;;;;12.93;10.03;;;9.00;71.50;;;;;;4997590;28;20200;-69
2022/02/14 11:46:54;;;;;;;10.60;8.37;;;9.00;71.60;;;;;;4998241;28;20212;-69
2022/02/14 11:49:42;;;;;;;8.70;7.13;;;9.00;71.30;;;;;;5010936;28;20239;-69
2022/02/14 11:52:30;;;;;;;13.23;8.03;;;9.00;69.20;;;;;;5009745;28;20216;-66
2022/02/14 11:54:59;;;;;;;10.50;8.60;;;9.00;68.10;;;;;;5022461;28;20294;-69
2022/02/14 11:57:33;;;;;;;12.33;8.70;;;9.00;67.80;;;;;;5004124;28;20297;-66
2022/02/14 12:00:10;;;;;;;12.93;9.50;;;9.00;67.60;;;;;;5006636;28;20293;-69
2022/02/14 12:02:38;;;;;;;10.87;8.50;;;9.00;67.80;;;;;;5006190;28;20627;-66
2022/02/14 12:05:06;;;;;;;14.33;9.10;;;9.00;66.50;;;;;;5016869;28;20260;-69
2022/02/14 12:07:37;;;;;;;12.10;8.40;;;9.00;66.40;;;;;;5010691;28;20287;-66
2022/02/14 12:10:16;;;;;;;9.57;7.57;;;9.00;66.40;;;;;;5000680;28;20618;-69
2022/02/14 12:12:46;;;;;;;9.37;7.40;;;9.00;66.00;;;;;;4999171;28;20219;-67
2022/02/14 12:20:34;;;;;;;12.53;8.50;;;9.00;65.40;;;;;;5005875;28;20243;-66
2022/02/14 12:21:11;;;;;;;8.73;6.70;;;9.00;65.70;;;;;;5011514;28;20222;-66
2022/02/14 12:24:19;;;;;;;8.47;7.57;;;9.00;65.90;;;;;;5013799;28;20206;-69
2022/02/14 12:26:49;;;;;;;8.40;7.03;;;9.10;65.50;;;;;;5009453;28;20273;-66
2022/02/14 12:29:32;;;;;;;10.67;7.90;;;9.20;65.20;;;;;;5014289;28;20589;-69
2022/02/14 12:32:09;;;;;;;11.47;7.73;;;9.20;65.10;;;;;;5004179;28;20287;-66
2022/02/14 12:34:37;;;;;;;11.23;8.40;;;9.20;64.40;;;;;;5014370;28;20619;-69
2022/02/14 12:37:08;;;;;;;9.10;7.17;;;9.20;63.50;;;;;;5006009;28;20663;-66
2022/02/14 12:39:40;;;;;;;9.87;7.67;;;9.20;63.10;;;;;;5004263;28;20222;-66
2022/02/14 12:42:16;;;;;;;8.27;7.20;;;9.20;63.50;;;;;;5004628;28;20230;-69
2022/02/14 12:44:44;;;;;;;7.47;6.10;;;9.30;64.10;;;;;;5002261;28;20212;-69
2022/02/14 12:47:13;;;;;;;7.50;6.57;;;9.30;63.70;;;;;;5010061;28;20245;-66
2022/02/14 12:50:01;;;;;;;10.10;7.13;;;9.40;63.50;;;;;;4996657;28;20204;-66
2022/02/14 12:52:28;;;;;;;9.60;7.67;;;9.50;62.40;;;;;;4994276;28;20203;-70